EW0627 Weather Reports


Display with metric or nautical units.
time (UTC)temp
F
wind
direction
speed
MPH
gust
MPH
rain 1hr
in
rain 24hr
in
rain mn
in
humidity
%
barometer
mb
20180716065045 77 78 0.0 0.0 0.00 0.72 0.04 92 1016.7
20180716063539 77 78 0.0 0.0 0.00 0.72 0.04 92 1016.8
20180716062037 76 78 0.0 0.0 0.00 0.72 0.04 92 1016.9
20180716060537 76 78 0.0 0.0 0.00 0.72 0.04 91 1017.0
20180716055053 76 78 0.0 0.0 0.00 0.72 0.04 91 1017.1
20180716053550 76 78 0.0 0.0 0.01 0.72 0.04 91 1017.1
20180716052050 76 78 0.0 0.0 0.03 0.72 0.04 90 1017.1
20180716050547 77 78 0.0 0.0 0.04 0.72 0.04 88 1017.3
20180716045055 78 78 0.0 0.0 0.04 0.72 0.04 88 1017.5
20180716043553 80 78 0.0 1.0 0.03 0.71 0.03 86 1017.7
20180716042048 81 339 0.0 1.0 0.01 0.69 0.01 87 1017.8
20180716040545 81 339 0.0 0.0 0.00 0.68 0.00 85 1017.7
20180716035033 81 339 0.0 0.0 0.00 0.68 0.68 85 1017.7
20180716033534 82 339 0.0 0.0 0.00 0.68 0.68 85 1017.6
20180716032034 82 339 0.0 0.0 0.00 0.68 0.68 85 1017.4
20180716030533 82 339 0.0 0.0 0.00 0.68 0.68 84 1017.3
20180716024944 82 339 0.0 0.0 0.00 0.68 0.68 84 1017.2
20180716023444 82 339 0.0 0.0 0.00 0.68 0.68 84 1017.2
20180716021945 82 339 0.0 1.0 0.00 0.68 0.68 83 1017.0
20180716020443 82 339 0.0 0.0 0.00 0.68 0.68 83 1016.9
20180716014953 82 339 0.0 0.0 0.00 0.68 0.68 83 1016.6
20180716013452 82 339 0.0 1.0 0.00 0.68 0.68 83 1016.4
20180716011956 82 331 0.0 0.0 0.00 0.68 0.68 83 1016.3
20180716010454 82 331 0.0 0.0 0.00 0.68 0.68 83 1016.3
20180716004936 83 331 0.0 0.0 0.00 0.68 0.68 82 1016.2
20180716003435 83 331 0.0 0.0 0.00 0.68 0.68 82 1015.9
20180716001934 84 331 0.0 0.0 0.00 0.68 0.68 81 1015.8
20180716000434 84 329 0.0 0.0 0.00 0.68 0.68 81 1015.6
20180715234946 84 329 0.0 0.0 0.00 0.68 0.68 81 1015.4
20180715233446 84 329 0.0 0.0 0.00 0.68 0.68 80 1015.3
20180715231942 85 329 0.0 1.0 0.00 0.68 0.68 79 1015.5
20180715230440 85 329 0.0 0.0 0.00 0.68 0.68 78 1015.6
20180715224951 85 329 0.0 1.0 0.00 0.68 0.68 77 1015.6
20180715223451 86 321 0.0 2.0 0.00 0.68 0.68 76 1015.7
20180715221950 86 313 0.0 1.0 0.00 0.68 0.68 76 1015.8
20180715220448 87 315 0.0 1.0 0.00 0.68 0.68 75 1015.8
20180715214938 88 311 0.0 4.0 0.00 0.68 0.68 75 1015.8
20180715213438 89 313 0.0 3.0 0.00 0.68 0.68 73 1015.8
20180715211940 89 295 0.0 3.0 0.00 0.68 0.68 72 1015.8
20180715210436 89 315 0.0 4.0 0.00 0.68 0.68 72 1015.9
20180715204948 89 355 0.0 2.0 0.00 0.68 0.68 72 1016.1
20180715203446 90 355 0.0 3.0 0.00 0.68 0.68 71 1016.3
20180715201945 90 336 0.0 4.0 0.00 0.68 0.68 69 1016.4
20180715200446 90 186 0.0 2.0 0.00 0.68 0.68 68 1016.4
20180715194939 90 332 0.0 6.0 0.00 0.68 0.68 71 1016.3
20180715193440 91 311 0.0 2.0 0.00 0.68 0.68 70 1016.6
20180715191937 89 302 0.0 4.0 0.00 0.68 0.68 70 1016.6
20180715190435 90 199 0.0 2.0 0.00 0.68 0.68 72 1016.6
20180715184951 90 205 0.0 6.0 0.00 0.68 0.68 72 1016.9
20180715183451 89 257 0.0 4.0 0.00 0.68 0.68 68 1017.3
20180715181950 90 5 0.0 6.0 0.00 0.68 0.68 69 1017.3
20180715180447 90 153 0.0 3.0 0.00 0.68 0.68 70 1017.4
20180715174900 90 5 0.0 3.0 0.00 0.68 0.68 68 1017.6
20180715173359 89 262 0.0 1.0 0.00 0.68 0.68 69 1017.8
20180715171942 88 330 0.0 5.0 0.00 0.68 0.68 74 1018.1
20180715170435 84 360 0.0 1.0 0.00 0.68 0.68 85 1018.0
20180715164851 81 360 0.0 1.0 0.00 0.68 0.68 88 1017.9
20180715163347 80 360 0.0 0.0 0.00 0.68 0.68 88 1018.0
20180715161851 80 360 0.0 0.0 0.00 0.68 0.68 87 1018.0
20180715160347 80 360 0.0 0.0 0.00 0.68 0.68 87 1018.1
20180715154850 81 360 0.0 0.0 0.00 0.68 0.68 85 1018.0
20180715153347 82 360 0.0 0.0 0.00 0.68 0.68 85 1018.1
20180715151850 82 360 0.0 1.0 0.00 0.68 0.68 84 1018.1
20180715150350 82 316 0.0 1.0 0.00 0.68 0.68 88 1018.1
20180715144848 80 316 0.0 2.0 0.00 0.68 0.68 92 1018.1
20180715143343 79 302 0.0 1.0 0.00 0.68 0.68 93 1018.1
20180715141841 79 302 0.0 0.0 0.00 0.68 0.68 93 1017.9
20180715140340 79 302 0.0 0.0 0.00 0.68 0.68 93 1017.9
20180715134841 79 302 0.0 0.0 0.00 0.68 0.68 93 1017.9
20180715133340 80 302 0.0 0.0 0.00 0.68 0.68 94 1018.0
20180715131840 79 302 0.0 0.0 0.00 0.68 0.68 93 1017.9
20180715130340 79 302 0.0 0.0 0.00 0.68 0.68 93 1017.8
20180715124848 78 302 0.0 0.0 0.00 0.68 0.68 93 1017.8
20180715123348 78 284 0.0 0.0 0.00 0.68 0.68 93 1017.5
20180715121843 78 284 0.0 0.0 0.00 0.68 0.68 93 1017.4
20180715120342 77 284 0.0 0.0 0.00 0.68 0.68 93 1017.3
20180715114832 77 284 0.0 0.0 0.00 0.68 0.68 93 1017.0
20180715113332 77 284 0.0 0.0 0.00 0.68 0.68 93 1016.8
20180715111831 77 284 0.0 0.0 0.00 0.68 0.68 93 1016.8
20180715110330 76 284 0.0 0.0 0.00 0.68 0.68 93 1016.8
20180715104844 76 284 0.0 0.0 0.00 0.68 0.68 93 1016.8
20180715103346 76 284 0.0 0.0 0.00 0.68 0.68 93 1016.6
20180715101839 76 284 0.0 0.0 0.00 0.68 0.68 93 1016.5
20180715100342 76 284 0.0 0.0 0.00 0.68 0.68 93 1016.6
20180715094753 76 284 0.0 0.0 0.00 0.68 0.68 93 1016.5
20180715093255 76 284 0.0 0.0 0.00 0.68 0.68 93 1016.5
20180715091748 76 284 0.0 0.0 0.00 0.68 0.68 92 1016.4
20180715090251 77 284 0.0 0.0 0.13 0.68 0.68 92 1016.4
20180715084738 77 284 0.0 0.0 0.13 0.68 0.68 92 1016.5
20180715083235 77 284 0.0 0.0 0.13 0.68 0.68 92 1016.5
20180715081740 77 284 0.0 1.0 0.13 0.68 0.68 92 1016.5
20180715080234 77 284 0.0 0.0 0.11 0.55 0.55 92 1016.5
20180715074749 77 284 0.0 0.0 0.43 0.55 0.55 92 1016.5
20180715073250 77 284 0.0 0.0 0.43 0.55 0.55 91 1016.5
20180715071745 77 284 0.0 0.0 0.52 0.55 0.55 91 1016.7
20180715070242 78 284 0.0 2.0 0.44 0.44 0.44 90 1016.8